Pagina principale
METAR-TAF:

METAR-TAF

Aeroporti :

Xi'an, Cina

latitudine: 34-26N, longitudine: 108-45E, altezza: 479 m

Osservazione

Il bollettino è stato emesso 24 minuti fa, alle 23:00 UTC
Vento 4 kt da nord, variando fra nord/nord-ovest e est
Temperature 21°C
Umidità 73%
Pressione 1005 hPa
Visibilità 10 km o più
Poco nuvoloso ad un'altezza di 5000 ft
pioggia debole

METAR: ZLXY 242300Z 01002MPS 330V080 9999 -RA FEW050 21/16 Q1005 NOSIG

Ora: 07:24 (23:24 UTC)

Previsione

Il bollettino è stato emesso 7 ore e 47 minuti fa, alle 15:37 UTC
Previsione valida dal 24 alle 18 UTC al 25 alle 18 UTC
Vento 6 kt da nord/nord-est
Visibilità: 3000 m
foschia
Evoluzione graduale
dal 25 alle 15 UTC al 25 alle 16 UTC
Vento 10 kt da ovest con raffiche fino a 19 kt
Temporaneamente
dal 24 alle 18 UTC al 24 alle 24 UTC
rovesci di pioggia

TAF: ZLXY 241537Z 2418/2518 03003MPS 3000 HZ NSC TX30/2508Z TN20/2422Z BECMG 2515/2516 26005G10MPS TEMPO 2418/2424 SHRA

Osservazioni e previsioni meteorologiche di più di 4000 aeroporti (messaggi METAR e TAF).

Le stazioni disponibili sono rappresentate dai dischi gialli e rossi sulla carta.

Puntare il mouse per vedere il nome della stazione.

Clicca sopra per visualizzare le osservazioni e previsioni meteorologiche.

Per cambiare la mappa : fare clic sui pulsanti verdi con una croce nera per ingrandire, il pulsante verde con un trattino per diminuire, o sulla freccia verde per le mappe adiacenti.


METAR-TAF: